sensor_id;sensor_type;location;lat;lon;timestamp;temperature;humidity
8105;DHT22;4095;48.942;9.104;2024-02-26T00:00:27;9.60;99.90
8105;DHT22;4095;48.942;9.104;2024-02-26T00:02:54;9.60;99.90
8105;DHT22;4095;48.942;9.104;2024-02-26T00:05:20;9.60;99.90
8105;DHT22;4095;48.942;9.104;2024-02-26T00:07:45;9.50;99.90
8105;DHT22;4095;48.942;9.104;2024-02-26T00:10:13;9.50;99.90
8105;DHT22;4095;48.942;9.104;2024-02-26T00:12:39;9.60;99.90
8105;DHT22;4095;48.942;9.104;2024-02-26T00:15:08;9.50;99.90
8105;DHT22;4095;48.942;9.104;2024-02-26T00:17:34;9.50;99.90
8105;DHT22;4095;48.942;9.104;2024-02-26T00:20:02;9.40;99.90
8105;DHT22;4095;48.942;9.104;2024-02-26T00:22:30;9.40;99.90
8105;DHT22;4095;48.942;9.104;2024-02-26T00:24:56;9.40;99.90
8105;DHT22;4095;48.942;9.104;2024-02-26T00:27:21;9.40;99.90
8105;DHT22;4095;48.942;9.104;2024-02-26T00:29:47;9.40;99.90
8105;DHT22;4095;48.942;9.104;2024-02-26T00:32:12;9.40;99.90
8105;DHT22;4095;48.942;9.104;2024-02-26T00:34:38;9.40;99.90
8105;DHT22;4095;48.942;9.104;2024-02-26T00:37:04;9.40;99.90
8105;DHT22;4095;48.942;9.104;2024-02-26T00:39:29;9.40;99.90
8105;DHT22;4095;48.942;9.104;2024-02-26T00:41:55;9.40;99.90
8105;DHT22;4095;48.942;9.104;2024-02-26T00:44:20;9.40;99.90
8105;DHT22;4095;48.942;9.104;2024-02-26T00:46:46;9.40;99.90
8105;DHT22;4095;48.942;9.104;2024-02-26T00:49:11;9.40;99.90
8105;DHT22;4095;48.942;9.104;2024-02-26T00:51:37;9.50;99.90
8105;DHT22;4095;48.942;9.104;2024-02-26T00:54:03;9.50;99.90
8105;DHT22;4095;48.942;9.104;2024-02-26T00:56:29;9.50;99.90
8105;DHT22;4095;48.942;9.104;2024-02-26T00:58:55;9.40;99.90
8105;DHT22;4095;48.942;9.104;2024-02-26T01:01:20;9.40;99.90
8105;DHT22;4095;48.942;9.104;2024-02-26T01:03:46;9.40;99.90
8105;DHT22;4095;48.942;9.104;2024-02-26T01:06:12;9.40;99.90
8105;DHT22;4095;48.942;9.104;2024-02-26T01:08:37;9.40;99.90
8105;DHT22;4095;48.942;9.104;2024-02-26T01:11:03;9.40;99.90
8105;DHT22;4095;48.942;9.104;2024-02-26T01:13:29;9.40;99.90
8105;DHT22;4095;48.942;9.104;2024-02-26T01:15:54;9.40;99.90
8105;DHT22;4095;48.942;9.104;2024-02-26T01:18:20;9.40;99.90
8105;DHT22;4095;48.942;9.104;2024-02-26T01:20:46;9.40;99.90
8105;DHT22;4095;48.942;9.104;2024-02-26T01:23:12;9.40;99.90
8105;DHT22;4095;48.942;9.104;2024-02-26T01:25:38;9.50;99.90
8105;DHT22;4095;48.942;9.104;2024-02-26T01:28:04;9.50;99.90
8105;DHT22;4095;48.942;9.104;2024-02-26T01:30:31;9.60;99.90
8105;DHT22;4095;48.942;9.104;2024-02-26T01:32:56;9.60;99.90
8105;DHT22;4095;48.942;9.104;2024-02-26T01:35:22;9.60;99.90
8105;DHT22;4095;48.942;9.104;2024-02-26T01:37:48;9.60;99.90
8105;DHT22;4095;48.942;9.104;2024-02-26T01:40:14;9.60;99.90
8105;DHT22;4095;48.942;9.104;2024-02-26T01:42:44;9.60;99.90
8105;DHT22;4095;48.942;9.104;2024-02-26T01:45:16;9.60;99.90
8105;DHT22;4095;48.942;9.104;2024-02-26T01:47:49;9.50;99.90
8105;DHT22;4095;48.942;9.104;2024-02-26T01:50:15;9.60;99.90
8105;DHT22;4095;48.942;9.104;2024-02-26T01:52:40;9.50;99.90
8105;DHT22;4095;48.942;9.104;2024-02-26T01:55:07;9.60;99.90
8105;DHT22;4095;48.942;9.104;2024-02-26T01:57:33;9.70;99.90
8105;DHT22;4095;48.942;9.104;2024-02-26T01:59:59;9.70;99.90
8105;DHT22;4095;48.942;9.104;2024-02-26T02:02:25;9.70;99.90
8105;DHT22;4095;48.942;9.104;2024-02-26T02:04:51;9.60;99.90
8105;DHT22;4095;48.942;9.104;2024-02-26T02:07:18;9.60;99.90
8105;DHT22;4095;48.942;9.104;2024-02-26T02:09:44;9.60;99.90
8105;DHT22;4095;48.942;9.104;2024-02-26T02:12:11;9.60;99.90
8105;DHT22;4095;48.942;9.104;2024-02-26T02:14:36;9.60;99.90
8105;DHT22;4095;48.942;9.104;2024-02-26T02:17:02;9.70;99.90
8105;DHT22;4095;48.942;9.104;2024-02-26T02:19:27;9.80;99.90
8105;DHT22;4095;48.942;9.104;2024-02-26T02:21:53;9.80;99.90
8105;DHT22;4095;48.942;9.104;2024-02-26T02:24:19;9.90;99.90
8105;DHT22;4095;48.942;9.104;2024-02-26T02:26:44;9.90;99.90
8105;DHT22;4095;48.942;9.104;2024-02-26T02:29:10;9.90;99.90
8105;DHT22;4095;48.942;9.104;2024-02-26T02:31:37;9.80;99.90
8105;DHT22;4095;48.942;9.104;2024-02-26T02:34:02;9.90;99.90
8105;DHT22;4095;48.942;9.104;2024-02-26T02:36:28;9.80;99.90
8105;DHT22;4095;48.942;9.104;2024-02-26T02:38:54;9.80;99.90
8105;DHT22;4095;48.942;9.104;2024-02-26T02:41:19;9.80;99.90
8105;DHT22;4095;48.942;9.104;2024-02-26T02:43:45;9.80;99.90
8105;DHT22;4095;48.942;9.104;2024-02-26T02:46:11;9.90;99.90
8105;DHT22;4095;48.942;9.104;2024-02-26T02:48:37;9.90;99.90
8105;DHT22;4095;48.942;9.104;2024-02-26T02:51:03;9.90;99.90
8105;DHT22;4095;48.942;9.104;2024-02-26T02:53:28;9.90;99.90
8105;DHT22;4095;48.942;9.104;2024-02-26T02:55:54;9.80;99.90
8105;DHT22;4095;48.942;9.104;2024-02-26T02:58:20;9.80;99.90
8105;DHT22;4095;48.942;9.104;2024-02-26T03:00:45;9.90;99.90
8105;DHT22;4095;48.942;9.104;2024-02-26T03:03:11;9.90;99.90
8105;DHT22;4095;48.942;9.104;2024-02-26T03:05:37;9.90;99.90
8105;DHT22;4095;48.942;9.104;2024-02-26T03:08:02;9.90;99.90
8105;DHT22;4095;48.942;9.104;2024-02-26T03:10:28;9.90;99.90
8105;DHT22;4095;48.942;9.104;2024-02-26T03:12:54;9.80;99.90
8105;DHT22;4095;48.942;9.104;2024-02-26T03:15:19;9.90;99.90
8105;DHT22;4095;48.942;9.104;2024-02-26T03:17:45;9.90;99.90
8105;DHT22;4095;48.942;9.104;2024-02-26T03:20:11;9.90;99.90
8105;DHT22;4095;48.942;9.104;2024-02-26T03:22:38;9.90;99.90
8105;DHT22;4095;48.942;9.104;2024-02-26T03:25:04;9.80;99.90
8105;DHT22;4095;48.942;9.104;2024-02-26T03:27:30;9.80;99.90
8105;DHT22;4095;48.942;9.104;2024-02-26T03:29:56;9.80;99.90
8105;DHT22;4095;48.942;9.104;2024-02-26T03:32:22;9.80;99.90
8105;DHT22;4095;48.942;9.104;2024-02-26T03:34:47;9.70;99.90
8105;DHT22;4095;48.942;9.104;2024-02-26T03:37:13;9.70;99.90
8105;DHT22;4095;48.942;9.104;2024-02-26T03:39:39;9.70;99.90
8105;DHT22;4095;48.942;9.104;2024-02-26T03:42:04;9.70;99.90
8105;DHT22;4095;48.942;9.104;2024-02-26T03:44:30;9.70;99.90
8105;DHT22;4095;48.942;9.104;2024-02-26T03:46:55;9.80;99.90
8105;DHT22;4095;48.942;9.104;2024-02-26T03:49:21;9.80;99.90
8105;DHT22;4095;48.942;9.104;2024-02-26T03:51:48;9.80;99.90
8105;DHT22;4095;48.942;9.104;2024-02-26T03:54:13;9.80;99.90
8105;DHT22;4095;48.942;9.104;2024-02-26T03:56:39;9.80;99.90
8105;DHT22;4095;48.942;9.104;2024-02-26T03:59:05;9.80;99.90
8105;DHT22;4095;48.942;9.104;2024-02-26T04:01:30;9.80;99.90
8105;DHT22;4095;48.942;9.104;2024-02-26T04:03:56;9.80;99.90
8105;DHT22;4095;48.942;9.104;2024-02-26T04:06:21;9.80;99.90
8105;DHT22;4095;48.942;9.104;2024-02-26T04:08:48;9.80;99.90
8105;DHT22;4095;48.942;9.104;2024-02-26T04:11:14;9.80;99.90
8105;DHT22;4095;48.942;9.104;2024-02-26T04:13:43;9.90;99.90
8105;DHT22;4095;48.942;9.104;2024-02-26T04:16:11;9.80;99.90
8105;DHT22;4095;48.942;9.104;2024-02-26T04:18:37;9.90;99.90
8105;DHT22;4095;48.942;9.104;2024-02-26T04:21:04;9.90;99.90
8105;DHT22;4095;48.942;9.104;2024-02-26T04:23:30;9.90;99.90
8105;DHT22;4095;48.942;9.104;2024-02-26T04:25:56;9.90;99.90
8105;DHT22;4095;48.942;9.104;2024-02-26T04:28:22;10.00;99.90
8105;DHT22;4095;48.942;9.104;2024-02-26T04:30:47;10.10;99.90
8105;DHT22;4095;48.942;9.104;2024-02-26T04:33:16;10.10;99.90
8105;DHT22;4095;48.942;9.104;2024-02-26T04:35:42;10.00;99.90
8105;DHT22;4095;48.942;9.104;2024-02-26T04:38:08;10.00;99.90
8105;DHT22;4095;48.942;9.104;2024-02-26T04:40:33;10.00;99.90
8105;DHT22;4095;48.942;9.104;2024-02-26T04:42:59;10.00;99.90
8105;DHT22;4095;48.942;9.104;2024-02-26T04:45:24;10.00;99.90
8105;DHT22;4095;48.942;9.104;2024-02-26T04:47:50;10.00;99.90
8105;DHT22;4095;48.942;9.104;2024-02-26T04:50:15;10.00;99.90
8105;DHT22;4095;48.942;9.104;2024-02-26T04:52:41;10.00;99.90
8105;DHT22;4095;48.942;9.104;2024-02-26T04:55:07;10.00;99.90
8105;DHT22;4095;48.942;9.104;2024-02-26T04:57:33;10.00;99.90
8105;DHT22;4095;48.942;9.104;2024-02-26T04:59:59;10.00;99.90
8105;DHT22;4095;48.942;9.104;2024-02-26T05:02:25;10.00;99.90
8105;DHT22;4095;48.942;9.104;2024-02-26T05:04:50;10.00;99.90
8105;DHT22;4095;48.942;9.104;2024-02-26T05:07:16;10.00;99.90
8105;DHT22;4095;48.942;9.104;2024-02-26T05:09:44;10.00;99.90
8105;DHT22;4095;48.942;9.104;2024-02-26T05:12:10;10.00;99.90
8105;DHT22;4095;48.942;9.104;2024-02-26T05:14:35;10.00;99.90
8105;DHT22;4095;48.942;9.104;2024-02-26T05:17:01;10.00;99.90
8105;DHT22;4095;48.942;9.104;2024-02-26T05:19:27;10.00;99.90
8105;DHT22;4095;48.942;9.104;2024-02-26T05:21:52;10.00;99.90
8105;DHT22;4095;48.942;9.104;2024-02-26T05:24:18;10.00;99.90
8105;DHT22;4095;48.942;9.104;2024-02-26T05:26:44;10.00;99.90
8105;DHT22;4095;48.942;9.104;2024-02-26T05:29:10;10.00;99.90
8105;DHT22;4095;48.942;9.104;2024-02-26T05:31:36;10.00;99.90
8105;DHT22;4095;48.942;9.104;2024-02-26T05:34:01;10.00;99.90
8105;DHT22;4095;48.942;9.104;2024-02-26T05:36:27;10.00;99.90
8105;DHT22;4095;48.942;9.104;2024-02-26T05:38:54;10.00;99.90
8105;DHT22;4095;48.942;9.104;2024-02-26T05:41:20;10.00;99.90
8105;DHT22;4095;48.942;9.104;2024-02-26T05:43:55;10.10;99.90
8105;DHT22;4095;48.942;9.104;2024-02-26T05:46:21;10.10;99.90
8105;DHT22;4095;48.942;9.104;2024-02-26T05:48:48;10.10;99.90
8105;DHT22;4095;48.942;9.104;2024-02-26T05:51:14;10.00;99.90
8105;DHT22;4095;48.942;9.104;2024-02-26T05:53:41;10.00;99.90
8105;DHT22;4095;48.942;9.104;2024-02-26T05:56:07;10.00;99.90
8105;DHT22;4095;48.942;9.104;2024-02-26T05:58:32;10.00;99.90
8105;DHT22;4095;48.942;9.104;2024-02-26T06:00:58;10.00;99.90
8105;DHT22;4095;48.942;9.104;2024-02-26T06:03:25;10.00;99.90
8105;DHT22;4095;48.942;9.104;2024-02-26T06:05:51;10.00;99.90
8105;DHT22;4095;48.942;9.104;2024-02-26T06:08:16;10.00;99.90
8105;DHT22;4095;48.942;9.104;2024-02-26T06:10:42;10.00;99.90
8105;DHT22;4095;48.942;9.104;2024-02-26T06:13:07;10.00;99.90
8105;DHT22;4095;48.942;9.104;2024-02-26T06:15:33;10.00;99.90
8105;DHT22;4095;48.942;9.104;2024-02-26T06:17:59;9.90;99.90
8105;DHT22;4095;48.942;9.104;2024-02-26T06:20:24;9.90;99.90
8105;DHT22;4095;48.942;9.104;2024-02-26T06:22:50;9.90;99.90
8105;DHT22;4095;48.942;9.104;2024-02-26T06:25:16;9.90;99.90
8105;DHT22;4095;48.942;9.104;2024-02-26T06:27:41;9.90;99.90
8105;DHT22;4095;48.942;9.104;2024-02-26T06:30:07;9.90;99.90
8105;DHT22;4095;48.942;9.104;2024-02-26T06:32:34;9.80;99.90
8105;DHT22;4095;48.942;9.104;2024-02-26T06:34:59;9.80;99.90
8105;DHT22;4095;48.942;9.104;2024-02-26T06:37:25;9.80;99.90
8105;DHT22;4095;48.942;9.104;2024-02-26T06:39:51;9.80;99.90
8105;DHT22;4095;48.942;9.104;2024-02-26T06:42:17;9.80;99.90
8105;DHT22;4095;48.942;9.104;2024-02-26T06:44:43;9.80;99.90
8105;DHT22;4095;48.942;9.104;2024-02-26T06:47:08;9.80;99.90
8105;DHT22;4095;48.942;9.104;2024-02-26T06:49:34;9.80;99.90
8105;DHT22;4095;48.942;9.104;2024-02-26T06:51:59;9.80;99.90
8105;DHT22;4095;48.942;9.104;2024-02-26T06:54:25;9.90;99.90
8105;DHT22;4095;48.942;9.104;2024-02-26T06:56:51;9.80;99.90
8105;DHT22;4095;48.942;9.104;2024-02-26T06:59:16;9.90;99.90
8105;DHT22;4095;48.942;9.104;2024-02-26T07:01:42;9.80;99.90
8105;DHT22;4095;48.942;9.104;2024-02-26T07:04:08;9.70;99.90
8105;DHT22;4095;48.942;9.104;2024-02-26T07:06:34;9.80;99.90
8105;DHT22;4095;48.942;9.104;2024-02-26T07:08:59;9.80;99.90
8105;DHT22;4095;48.942;9.104;2024-02-26T07:11:25;9.80;99.90
8105;DHT22;4095;48.942;9.104;2024-02-26T07:13:50;9.90;99.90
8105;DHT22;4095;48.942;9.104;2024-02-26T07:16:16;9.90;99.90
8105;DHT22;4095;48.942;9.104;2024-02-26T07:18:42;9.90;99.90
8105;DHT22;4095;48.942;9.104;2024-02-26T07:21:09;9.90;99.90
8105;DHT22;4095;48.942;9.104;2024-02-26T07:23:34;9.90;99.90
8105;DHT22;4095;48.942;9.104;2024-02-26T07:26:00;10.00;99.90
8105;DHT22;4095;48.942;9.104;2024-02-26T07:28:25;10.00;99.90
8105;DHT22;4095;48.942;9.104;2024-02-26T07:30:51;10.10;99.90
8105;DHT22;4095;48.942;9.104;2024-02-26T07:33:17;10.10;99.90
8105;DHT22;4095;48.942;9.104;2024-02-26T07:35:42;10.20;99.90
8105;DHT22;4095;48.942;9.104;2024-02-26T07:38:08;10.20;99.90
8105;DHT22;4095;48.942;9.104;2024-02-26T07:40:33;10.20;99.90
8105;DHT22;4095;48.942;9.104;2024-02-26T07:42:59;10.30;99.90
8105;DHT22;4095;48.942;9.104;2024-02-26T07:45:25;10.20;99.90
8105;DHT22;4095;48.942;9.104;2024-02-26T07:47:50;10.30;99.90
8105;DHT22;4095;48.942;9.104;2024-02-26T07:50:17;10.30;99.90
8105;DHT22;4095;48.942;9.104;2024-02-26T07:52:43;10.20;99.90
8105;DHT22;4095;48.942;9.104;2024-02-26T07:55:09;10.30;99.90
8105;DHT22;4095;48.942;9.104;2024-02-26T07:57:35;10.30;99.90
8105;DHT22;4095;48.942;9.104;2024-02-26T08:00:02;10.30;99.90
8105;DHT22;4095;48.942;9.104;2024-02-26T08:02:28;10.30;99.90
8105;DHT22;4095;48.942;9.104;2024-02-26T08:04:54;10.30;99.90
8105;DHT22;4095;48.942;9.104;2024-02-26T08:07:19;10.40;99.90
8105;DHT22;4095;48.942;9.104;2024-02-26T08:09:46;10.40;99.90
8105;DHT22;4095;48.942;9.104;2024-02-26T08:12:12;10.40;99.90
8105;DHT22;4095;48.942;9.104;2024-02-26T08:14:38;10.40;99.90
8105;DHT22;4095;48.942;9.104;2024-02-26T08:17:03;10.40;99.90
8105;DHT22;4095;48.942;9.104;2024-02-26T08:19:29;10.40;99.90
8105;DHT22;4095;48.942;9.104;2024-02-26T08:21:54;10.50;99.90
8105;DHT22;4095;48.942;9.104;2024-02-26T08:24:20;10.50;99.90
8105;DHT22;4095;48.942;9.104;2024-02-26T08:26:46;10.50;99.90
8105;DHT22;4095;48.942;9.104;2024-02-26T08:29:11;10.60;99.90
8105;DHT22;4095;48.942;9.104;2024-02-26T08:31:37;10.60;99.90
8105;DHT22;4095;48.942;9.104;2024-02-26T08:34:03;10.60;99.90
8105;DHT22;4095;48.942;9.104;2024-02-26T08:36:31;10.60;99.90
8105;DHT22;4095;48.942;9.104;2024-02-26T08:38:57;10.60;99.90
8105;DHT22;4095;48.942;9.104;2024-02-26T08:41:23;10.70;99.90
8105;DHT22;4095;48.942;9.104;2024-02-26T08:43:48;10.80;99.90
8105;DHT22;4095;48.942;9.104;2024-02-26T08:46:14;10.80;99.90
8105;DHT22;4095;48.942;9.104;2024-02-26T08:48:40;10.90;99.90
8105;DHT22;4095;48.942;9.104;2024-02-26T08:51:09;10.80;99.90
8105;DHT22;4095;48.942;9.104;2024-02-26T08:53:36;10.90;99.90
8105;DHT22;4095;48.942;9.104;2024-02-26T08:56:01;10.90;99.90
8105;DHT22;4095;48.942;9.104;2024-02-26T08:58:28;11.00;99.90
8105;DHT22;4095;48.942;9.104;2024-02-26T09:00:53;11.00;99.90
8105;DHT22;4095;48.942;9.104;2024-02-26T09:03:19;11.10;99.90
8105;DHT22;4095;48.942;9.104;2024-02-26T09:05:45;11.10;99.90
8105;DHT22;4095;48.942;9.104;2024-02-26T09:08:10;11.10;99.90
8105;DHT22;4095;48.942;9.104;2024-02-26T09:10:36;11.10;99.90
8105;DHT22;4095;48.942;9.104;2024-02-26T09:13:01;11.20;99.90
8105;DHT22;4095;48.942;9.104;2024-02-26T09:15:27;11.30;99.90
8105;DHT22;4095;48.942;9.104;2024-02-26T09:17:53;11.20;99.90
8105;DHT22;4095;48.942;9.104;2024-02-26T09:20:18;11.20;99.90
8105;DHT22;4095;48.942;9.104;2024-02-26T09:22:46;11.20;99.90
8105;DHT22;4095;48.942;9.104;2024-02-26T09:25:12;11.30;99.90
8105;DHT22;4095;48.942;9.104;2024-02-26T09:27:38;11.30;99.90
8105;DHT22;4095;48.942;9.104;2024-02-26T09:30:04;11.40;99.90
8105;DHT22;4095;48.942;9.104;2024-02-26T09:32:30;11.50;99.90
8105;DHT22;4095;48.942;9.104;2024-02-26T09:34:56;11.60;99.90
8105;DHT22;4095;48.942;9.104;2024-02-26T09:37:22;11.70;99.90
8105;DHT22;4095;48.942;9.104;2024-02-26T09:39:47;11.80;99.90
8105;DHT22;4095;48.942;9.104;2024-02-26T09:42:13;11.90;99.90
8105;DHT22;4095;48.942;9.104;2024-02-26T09:44:40;11.90;99.90
8105;DHT22;4095;48.942;9.104;2024-02-26T09:47:10;12.00;99.90
8105;DHT22;4095;48.942;9.104;2024-02-26T09:49:37;12.10;99.90
8105;DHT22;4095;48.942;9.104;2024-02-26T09:52:04;12.20;99.90
8105;DHT22;4095;48.942;9.104;2024-02-26T09:54:31;12.30;99.90
8105;DHT22;4095;48.942;9.104;2024-02-26T09:56:59;12.30;99.90
8105;DHT22;4095;48.942;9.104;2024-02-26T09:59:27;12.30;99.90
8105;DHT22;4095;48.942;9.104;2024-02-26T10:01:53;12.40;99.90
8105;DHT22;4095;48.942;9.104;2024-02-26T10:04:20;12.40;99.90
8105;DHT22;4095;48.942;9.104;2024-02-26T10:06:47;12.40;99.90
8105;DHT22;4095;48.942;9.104;2024-02-26T10:09:13;12.50;99.90
8105;DHT22;4095;48.942;9.104;2024-02-26T10:11:41;12.60;99.90
8105;DHT22;4095;48.942;9.104;2024-02-26T10:14:08;12.60;99.90
8105;DHT22;4095;48.942;9.104;2024-02-26T10:16:34;12.70;99.90
8105;DHT22;4095;48.942;9.104;2024-02-26T10:19:00;12.80;99.90
8105;DHT22;4095;48.942;9.104;2024-02-26T10:21:26;12.80;99.90
8105;DHT22;4095;48.942;9.104;2024-02-26T10:23:52;12.90;99.90
8105;DHT22;4095;48.942;9.104;2024-02-26T10:26:17;13.00;99.90
8105;DHT22;4095;48.942;9.104;2024-02-26T10:28:45;13.20;99.90
8105;DHT22;4095;48.942;9.104;2024-02-26T10:31:11;13.50;99.90
8105;DHT22;4095;48.942;9.104;2024-02-26T10:33:37;13.90;99.90
8105;DHT22;4095;48.942;9.104;2024-02-26T10:36:04;14.10;99.90
8105;DHT22;4095;48.942;9.104;2024-02-26T10:38:31;14.30;99.90
8105;DHT22;4095;48.942;9.104;2024-02-26T10:40:57;14.50;99.90
8105;DHT22;4095;48.942;9.104;2024-02-26T10:43:22;14.60;99.90
8105;DHT22;4095;48.942;9.104;2024-02-26T10:45:48;14.60;99.90
8105;DHT22;4095;48.942;9.104;2024-02-26T10:48:14;14.60;99.90
8105;DHT22;4095;48.942;9.104;2024-02-26T10:50:40;14.70;99.90
8105;DHT22;4095;48.942;9.104;2024-02-26T10:53:21;14.80;99.90
8105;DHT22;4095;48.942;9.104;2024-02-26T10:56:07;15.40;99.90
8105;DHT22;4095;48.942;9.104;2024-02-26T10:58:34;16.10;99.90
8105;DHT22;4095;48.942;9.104;2024-02-26T11:01:00;16.70;99.90
8105;DHT22;4095;48.942;9.104;2024-02-26T11:03:26;17.10;99.90
8105;DHT22;4095;48.942;9.104;2024-02-26T11:05:54;17.30;99.90
8105;DHT22;4095;48.942;9.104;2024-02-26T11:08:20;17.60;99.90
8105;DHT22;4095;48.942;9.104;2024-02-26T11:10:53;18.00;99.90
8105;DHT22;4095;48.942;9.104;2024-02-26T11:13:19;18.40;99.90
8105;DHT22;4095;48.942;9.104;2024-02-26T11:15:47;19.00;99.60
8105;DHT22;4095;48.942;9.104;2024-02-26T11:18:15;20.00;98.60
8105;DHT22;4095;48.942;9.104;2024-02-26T11:20:41;21.00;96.80
8105;DHT22;4095;48.942;9.104;2024-02-26T11:23:07;22.10;96.10
8105;DHT22;4095;48.942;9.104;2024-02-26T11:25:37;23.50;94.40
8105;DHT22;4095;48.942;9.104;2024-02-26T11:28:06;24.40;93.50
8105;DHT22;4095;48.942;9.104;2024-02-26T11:30:36;25.00;92.10
8105;DHT22;4095;48.942;9.104;2024-02-26T11:33:07;25.30;91.30
8105;DHT22;4095;48.942;9.104;2024-02-26T11:35:35;25.70;91.10
8105;DHT22;4095;48.942;9.104;2024-02-26T11:38:01;26.10;90.20
8105;DHT22;4095;48.942;9.104;2024-02-26T11:40:28;25.90;89.30
8105;DHT22;4095;48.942;9.104;2024-02-26T11:42:54;25.50;88.90
8105;DHT22;4095;48.942;9.104;2024-02-26T11:48:04;24.80;91.30
8105;DHT22;4095;48.942;9.104;2024-02-26T11:50:39;24.90;90.20
8105;DHT22;4095;48.942;9.104;2024-02-26T11:53:26;24.60;90.40
8105;DHT22;4095;48.942;9.104;2024-02-26T11:56:32;23.70;89.00
8105;DHT22;4095;48.942;9.104;2024-02-26T11:59:00;23.60;90.80
8105;DHT22;4095;48.942;9.104;2024-02-26T12:01:47;24.70;91.10
8105;DHT22;4095;48.942;9.104;2024-02-26T12:04:24;25.80;88.50
8105;DHT22;4095;48.942;9.104;2024-02-26T12:06:52;26.90;87.90
8105;DHT22;4095;48.942;9.104;2024-02-26T12:12:02;28.40;77.00
8105;DHT22;4095;48.942;9.104;2024-02-26T12:14:28;28.30;77.40
8105;DHT22;4095;48.942;9.104;2024-02-26T12:16:55;27.40;75.10
8105;DHT22;4095;48.942;9.104;2024-02-26T12:19:22;26.30;76.50
8105;DHT22;4095;48.942;9.104;2024-02-26T12:21:51;25.50;78.70
8105;DHT22;4095;48.942;9.104;2024-02-26T12:24:18;24.40;83.10
8105;DHT22;4095;48.942;9.104;2024-02-26T12:26:45;23.60;84.80
8105;DHT22;4095;48.942;9.104;2024-02-26T12:29:11;23.20;87.70
8105;DHT22;4095;48.942;9.104;2024-02-26T12:31:37;23.40;84.90
8105;DHT22;4095;48.942;9.104;2024-02-26T12:34:04;23.60;84.40
8105;DHT22;4095;48.942;9.104;2024-02-26T12:36:31;23.00;85.60
8105;DHT22;4095;48.942;9.104;2024-02-26T12:38:58;22.30;84.70
8105;DHT22;4095;48.942;9.104;2024-02-26T12:41:23;21.50;86.90
8105;DHT22;4095;48.942;9.104;2024-02-26T12:43:49;21.00;90.00
8105;DHT22;4095;48.942;9.104;2024-02-26T12:46:15;20.50;90.90
8105;DHT22;4095;48.942;9.104;2024-02-26T12:48:46;20.00;90.40
8105;DHT22;4095;48.942;9.104;2024-02-26T12:51:12;19.50;89.90
8105;DHT22;4095;48.942;9.104;2024-02-26T12:53:39;19.30;91.70
8105;DHT22;4095;48.942;9.104;2024-02-26T12:56:07;19.00;91.30
8105;DHT22;4095;48.942;9.104;2024-02-26T12:58:33;18.70;91.60
8105;DHT22;4095;48.942;9.104;2024-02-26T13:00:59;18.40;92.70
8105;DHT22;4095;48.942;9.104;2024-02-26T13:03:26;18.20;92.30
8105;DHT22;4095;48.942;9.104;2024-02-26T13:05:53;18.00;92.80
8105;DHT22;4095;48.942;9.104;2024-02-26T13:08:20;17.80;93.00
8105;DHT22;4095;48.942;9.104;2024-02-26T13:10:47;17.70;93.90
8105;DHT22;4095;48.942;9.104;2024-02-26T13:13:17;17.60;93.40
8105;DHT22;4095;48.942;9.104;2024-02-26T13:15:43;17.60;94.70
8105;DHT22;4095;48.942;9.104;2024-02-26T13:18:10;17.50;94.80
8105;DHT22;4095;48.942;9.104;2024-02-26T13:20:35;17.60;95.20
8105;DHT22;4095;48.942;9.104;2024-02-26T13:23:06;18.00;96.60
8105;DHT22;4095;48.942;9.104;2024-02-26T13:25:32;18.60;95.40
8105;DHT22;4095;48.942;9.104;2024-02-26T13:28:09;19.20;94.90
8105;DHT22;4095;48.942;9.104;2024-02-26T13:30:37;19.50;95.00
8105;DHT22;4095;48.942;9.104;2024-02-26T13:33:13;19.70;94.70
8105;DHT22;4095;48.942;9.104;2024-02-26T13:35:39;19.70;94.40
8105;DHT22;4095;48.942;9.104;2024-02-26T13:38:05;19.50;93.70
8105;DHT22;4095;48.942;9.104;2024-02-26T13:40:32;19.50;94.20
8105;DHT22;4095;48.942;9.104;2024-02-26T13:42:57;19.50;94.60
8105;DHT22;4095;48.942;9.104;2024-02-26T13:45:23;19.60;94.80
8105;DHT22;4095;48.942;9.104;2024-02-26T13:47:48;19.50;94.20
8105;DHT22;4095;48.942;9.104;2024-02-26T13:50:14;19.30;94.00
8105;DHT22;4095;48.942;9.104;2024-02-26T13:52:40;19.10;94.20
8105;DHT22;4095;48.942;9.104;2024-02-26T13:55:06;19.00;94.30
8105;DHT22;4095;48.942;9.104;2024-02-26T13:57:32;19.10;95.00
8105;DHT22;4095;48.942;9.104;2024-02-26T13:59:58;19.10;95.00
8105;DHT22;4095;48.942;9.104;2024-02-26T14:02:24;19.00;94.60
8105;DHT22;4095;48.942;9.104;2024-02-26T14:04:49;18.90;94.10
8105;DHT22;4095;48.942;9.104;2024-02-26T14:07:15;18.80;94.90
8105;DHT22;4095;48.942;9.104;2024-02-26T14:09:42;18.70;95.20
8105;DHT22;4095;48.942;9.104;2024-02-26T14:12:08;18.50;94.40
8105;DHT22;4095;48.942;9.104;2024-02-26T14:14:34;18.40;94.80
8105;DHT22;4095;48.942;9.104;2024-02-26T14:17:03;18.30;95.10
8105;DHT22;4095;48.942;9.104;2024-02-26T14:19:29;18.20;94.90
8105;DHT22;4095;48.942;9.104;2024-02-26T14:21:55;18.10;95.30
8105;DHT22;4095;48.942;9.104;2024-02-26T14:24:20;18.00;94.80
8105;DHT22;4095;48.942;9.104;2024-02-26T14:26:46;17.90;94.80
8105;DHT22;4095;48.942;9.104;2024-02-26T14:29:12;18.10;95.60
8105;DHT22;4095;48.942;9.104;2024-02-26T14:31:37;18.40;95.30
8105;DHT22;4095;48.942;9.104;2024-02-26T14:34:03;18.90;94.40
8105;DHT22;4095;48.942;9.104;2024-02-26T14:36:28;19.30;94.20
8105;DHT22;4095;48.942;9.104;2024-02-26T14:38:54;19.70;93.90
8105;DHT22;4095;48.942;9.104;2024-02-26T14:41:20;19.70;93.20
8105;DHT22;4095;48.942;9.104;2024-02-26T14:43:45;19.50;92.60
8105;DHT22;4095;48.942;9.104;2024-02-26T14:46:11;19.40;93.40
8105;DHT22;4095;48.942;9.104;2024-02-26T14:48:37;19.20;94.30
8105;DHT22;4095;48.942;9.104;2024-02-26T14:51:03;19.00;93.60
8105;DHT22;4095;48.942;9.104;2024-02-26T14:53:31;18.80;94.00
8105;DHT22;4095;48.942;9.104;2024-02-26T14:55:57;18.60;93.80
8105;DHT22;4095;48.942;9.104;2024-02-26T14:58:23;18.70;94.50
8105;DHT22;4095;48.942;9.104;2024-02-26T15:00:48;18.50;94.00
8105;DHT22;4095;48.942;9.104;2024-02-26T15:03:15;18.30;94.30
8105;DHT22;4095;48.942;9.104;2024-02-26T15:05:40;18.20;95.00
8105;DHT22;4095;48.942;9.104;2024-02-26T15:08:06;17.90;94.80
8105;DHT22;4095;48.942;9.104;2024-02-26T15:10:34;17.90;94.60
8105;DHT22;4095;48.942;9.104;2024-02-26T15:13:00;17.70;95.10
8105;DHT22;4095;48.942;9.104;2024-02-26T15:15:25;17.70;95.10
8105;DHT22;4095;48.942;9.104;2024-02-26T15:17:51;17.50;95.30
8105;DHT22;4095;48.942;9.104;2024-02-26T15:20:17;17.50;95.70
8105;DHT22;4095;48.942;9.104;2024-02-26T15:22:42;17.40;95.80
8105;DHT22;4095;48.942;9.104;2024-02-26T15:25:08;17.20;95.90
8105;DHT22;4095;48.942;9.104;2024-02-26T15:27:34;17.10;96.30
8105;DHT22;4095;48.942;9.104;2024-02-26T15:30:00;17.10;96.50
8105;DHT22;4095;48.942;9.104;2024-02-26T15:32:26;16.90;96.80
8105;DHT22;4095;48.942;9.104;2024-02-26T15:34:55;16.90;96.80
8105;DHT22;4095;48.942;9.104;2024-02-26T15:37:21;16.90;96.90
8105;DHT22;4095;48.942;9.104;2024-02-26T15:39:47;16.80;97.50
8105;DHT22;4095;48.942;9.104;2024-02-26T15:42:13;16.80;97.40
8105;DHT22;4095;48.942;9.104;2024-02-26T15:44:39;16.70;97.80
8105;DHT22;4095;48.942;9.104;2024-02-26T15:47:06;16.70;98.10
8105;DHT22;4095;48.942;9.104;2024-02-26T15:49:32;16.60;98.20
8105;DHT22;4095;48.942;9.104;2024-02-26T15:51:58;16.50;98.10
8105;DHT22;4095;48.942;9.104;2024-02-26T15:54:23;16.50;98.10
8105;DHT22;4095;48.942;9.104;2024-02-26T15:56:49;16.50;98.80
8105;DHT22;4095;48.942;9.104;2024-02-26T15:59:15;16.40;98.50
8105;DHT22;4095;48.942;9.104;2024-02-26T16:01:41;16.40;98.90
8105;DHT22;4095;48.942;9.104;2024-02-26T16:04:08;16.40;98.90
8105;DHT22;4095;48.942;9.104;2024-02-26T16:06:41;16.30;99.00